Mineral Bluff, Georgia
Current Conditions -  °F | °C
As of 12:55 PM on Wednesday 28 Jan 2015 (Local Time) from KRHP Reporting Station
Clear Clear  
Wind Chill: 42°   Ceiling: Unl
Heat Index: 42°   Visibility: 10mi
Dew Point: 19°   Wind: 3mph
Humidity: 40%   Direction: 250°WSW
Pressure: 30.25"   Gusts: NA
Location:  34.91°N, 84.28°W
Report Text: KRHP 281755Z AUTO 25003KT 10SM CLR 05/M07 A3025 RMK AO2 T00541074 10056 21057
Loading
Personal Weather Stations






























Interactive Weather Map New forecast layout! Learn more

10-Day Weather Forecast

Advertisements
Track Severe Weather on mobile